sensor_id;sensor_type;location;lat;lon;timestamp;pressure;altitude;pressure_sealevel;temperature;humidity
19447;BME280;9862;49.462;11.054;2023-03-04T00:01:14;98546.78;;;3.79;100.00
19447;BME280;9862;49.462;11.054;2023-03-04T00:03:41;98554.19;;;3.84;100.00
19447;BME280;9862;49.462;11.054;2023-03-04T00:06:08;98556.31;;;3.80;100.00
19447;BME280;9862;49.462;11.054;2023-03-04T00:08:34;98553.47;;;3.73;100.00
19447;BME280;9862;49.462;11.054;2023-03-04T00:11:03;98561.81;;;3.69;100.00
19447;BME280;9862;49.462;11.054;2023-03-04T00:13:31;98551.44;;;3.67;100.00
19447;BME280;9862;49.462;11.054;2023-03-04T00:15:57;98551.56;;;3.66;100.00
19447;BME280;9862;49.462;11.054;2023-03-04T00:18:24;98556.09;;;3.56;100.00
19447;BME280;9862;49.462;11.054;2023-03-04T00:20:50;98559.28;;;3.59;100.00
19447;BME280;9862;49.462;11.054;2023-03-04T00:23:17;98562.88;;;3.58;100.00
19447;BME280;9862;49.462;11.054;2023-03-04T00:25:43;98558.81;;;3.46;100.00
19447;BME280;9862;49.462;11.054;2023-03-04T00:28:11;98557.31;;;3.43;100.00
19447;BME280;9862;49.462;11.054;2023-03-04T00:30:38;98559.19;;;3.51;100.00
19447;BME280;9862;49.462;11.054;2023-03-04T00:33:04;98551.16;;;3.53;100.00
19447;BME280;9862;49.462;11.054;2023-03-04T00:35:31;98549.66;;;3.68;100.00
19447;BME280;9862;49.462;11.054;2023-03-04T00:37:57;98548.75;;;3.77;100.00
19447;BME280;9862;49.462;11.054;2023-03-04T00:40:24;98548.09;;;3.83;100.00
19447;BME280;9862;49.462;11.054;2023-03-04T00:42:51;98554.94;;;3.94;100.00
19447;BME280;9862;49.462;11.054;2023-03-04T00:45:19;98558.09;;;3.97;100.00
19447;BME280;9862;49.462;11.054;2023-03-04T00:47:46;98552.78;;;3.89;100.00
19447;BME280;9862;49.462;11.054;2023-03-04T00:50:12;98551.50;;;3.76;100.00
19447;BME280;9862;49.462;11.054;2023-03-04T00:52:39;98560.28;;;3.84;100.00
19447;BME280;9862;49.462;11.054;2023-03-04T00:55:07;98552.13;;;3.95;100.00
19447;BME280;9862;49.462;11.054;2023-03-04T00:57:34;98561.03;;;3.94;100.00
19447;BME280;9862;49.462;11.054;2023-03-04T01:00:01;98557.47;;;3.78;100.00
19447;BME280;9862;49.462;11.054;2023-03-04T01:02:28;98562.09;;;3.66;100.00
19447;BME280;9862;49.462;11.054;2023-03-04T01:04:55;98558.38;;;3.51;100.00
19447;BME280;9862;49.462;11.054;2023-03-04T01:07:22;98557.00;;;3.47;100.00
19447;BME280;9862;49.462;11.054;2023-03-04T01:09:49;98559.03;;;3.35;100.00
19447;BME280;9862;49.462;11.054;2023-03-04T01:12:15;98555.06;;;3.31;100.00
19447;BME280;9862;49.462;11.054;2023-03-04T01:14:42;98550.25;;;3.26;100.00
19447;BME280;9862;49.462;11.054;2023-03-04T01:17:08;98545.59;;;3.20;100.00
19447;BME280;9862;49.462;11.054;2023-03-04T01:19:37;98544.09;;;3.35;100.00
19447;BME280;9862;49.462;11.054;2023-03-04T01:22:04;98546.34;;;3.30;100.00
19447;BME280;9862;49.462;11.054;2023-03-04T01:24:30;98543.41;;;3.33;100.00
19447;BME280;9862;49.462;11.054;2023-03-04T01:26:57;98539.63;;;3.18;100.00
19447;BME280;9862;49.462;11.054;2023-03-04T01:29:23;98539.34;;;3.03;100.00
19447;BME280;9862;49.462;11.054;2023-03-04T01:31:50;98539.19;;;2.77;100.00
19447;BME280;9862;49.462;11.054;2023-03-04T01:34:16;98541.53;;;2.53;100.00
19447;BME280;9862;49.462;11.054;2023-03-04T01:36:44;98548.78;;;2.32;100.00
19447;BME280;9862;49.462;11.054;2023-03-04T01:39:11;98545.53;;;2.20;100.00
19447;BME280;9862;49.462;11.054;2023-03-04T01:41:38;98544.53;;;2.21;100.00
19447;BME280;9862;49.462;11.054;2023-03-04T01:44:04;98540.84;;;2.23;100.00
19447;BME280;9862;49.462;11.054;2023-03-04T01:46:31;98539.47;;;2.10;100.00
19447;BME280;9862;49.462;11.054;2023-03-04T01:48:58;98541.69;;;2.14;100.00
19447;BME280;9862;49.462;11.054;2023-03-04T01:51:25;98542.47;;;2.24;100.00
19447;BME280;9862;49.462;11.054;2023-03-04T01:53:53;98533.06;;;2.22;100.00
19447;BME280;9862;49.462;11.054;2023-03-04T01:56:22;98536.91;;;2.37;100.00
19447;BME280;9862;49.462;11.054;2023-03-04T01:59:08;98531.59;;;2.47;100.00
19447;BME280;9862;49.462;11.054;2023-03-04T02:01:36;98523.53;;;2.58;100.00
19447;BME280;9862;49.462;11.054;2023-03-04T02:04:03;98523.97;;;2.81;100.00
19447;BME280;9862;49.462;11.054;2023-03-04T02:06:30;98526.16;;;2.85;100.00
19447;BME280;9862;49.462;11.054;2023-03-04T02:08:58;98518.72;;;2.81;100.00
19447;BME280;9862;49.462;11.054;2023-03-04T02:11:25;98517.84;;;2.90;100.00
19447;BME280;9862;49.462;11.054;2023-03-04T02:13:52;98520.31;;;2.92;100.00
19447;BME280;9862;49.462;11.054;2023-03-04T02:16:18;98514.53;;;3.06;100.00
19447;BME280;9862;49.462;11.054;2023-03-04T02:18:45;98508.91;;;3.01;100.00
19447;BME280;9862;49.462;11.054;2023-03-04T02:21:15;98516.28;;;2.70;100.00
19447;BME280;9862;49.462;11.054;2023-03-04T02:23:50;98517.19;;;2.23;100.00
19447;BME280;9862;49.462;11.054;2023-03-04T02:26:22;98522.25;;;1.97;100.00
19447;BME280;9862;49.462;11.054;2023-03-04T02:28:51;98511.88;;;1.96;100.00
19447;BME280;9862;49.462;11.054;2023-03-04T02:31:23;98512.03;;;1.94;100.00
19447;BME280;9862;49.462;11.054;2023-03-04T02:33:52;98501.41;;;1.96;100.00
19447;BME280;9862;49.462;11.054;2023-03-04T02:36:19;98510.25;;;1.85;100.00
19447;BME280;9862;49.462;11.054;2023-03-04T02:38:46;98512.75;;;1.87;100.00
19447;BME280;9862;49.462;11.054;2023-03-04T02:41:14;98511.50;;;1.71;100.00
19447;BME280;9862;49.462;11.054;2023-03-04T02:43:44;98507.56;;;1.29;100.00
19447;BME280;9862;49.462;11.054;2023-03-04T02:46:12;98512.22;;;1.15;100.00
19447;BME280;9862;49.462;11.054;2023-03-04T02:48:39;98513.09;;;1.16;100.00
19447;BME280;9862;49.462;11.054;2023-03-04T02:51:05;98504.25;;;1.07;100.00
19447;BME280;9862;49.462;11.054;2023-03-04T02:53:32;98505.47;;;1.23;100.00
19447;BME280;9862;49.462;11.054;2023-03-04T02:55:58;98496.50;;;1.35;100.00
19447;BME280;9862;49.462;11.054;2023-03-04T02:58:25;98488.25;;;1.39;100.00
19447;BME280;9862;49.462;11.054;2023-03-04T03:00:53;98486.56;;;1.48;100.00
19447;BME280;9862;49.462;11.054;2023-03-04T03:03:19;98491.00;;;1.48;100.00
19447;BME280;9862;49.462;11.054;2023-03-04T03:05:46;98491.97;;;1.37;100.00
19447;BME280;9862;49.462;11.054;2023-03-04T03:08:13;98485.91;;;1.27;100.00
19447;BME280;9862;49.462;11.054;2023-03-04T03:10:39;98497.38;;;1.16;100.00
19447;BME280;9862;49.462;11.054;2023-03-04T03:13:06;98496.09;;;1.10;100.00
19447;BME280;9862;49.462;11.054;2023-03-04T03:15:33;98494.03;;;1.04;100.00
19447;BME280;9862;49.462;11.054;2023-03-04T03:18:01;98497.47;;;1.05;100.00
19447;BME280;9862;49.462;11.054;2023-03-04T03:20:28;98497.06;;;0.90;100.00
19447;BME280;9862;49.462;11.054;2023-03-04T03:22:54;98507.38;;;0.82;100.00
19447;BME280;9862;49.462;11.054;2023-03-04T03:25:21;98504.91;;;0.90;100.00
19447;BME280;9862;49.462;11.054;2023-03-04T03:27:48;98507.25;;;0.93;100.00
19447;BME280;9862;49.462;11.054;2023-03-04T03:30:15;98510.44;;;0.87;100.00
19447;BME280;9862;49.462;11.054;2023-03-04T03:32:42;98512.19;;;0.77;100.00
19447;BME280;9862;49.462;11.054;2023-03-04T03:35:10;98514.94;;;0.75;100.00
19447;BME280;9862;49.462;11.054;2023-03-04T03:37:37;98511.63;;;0.64;100.00
19447;BME280;9862;49.462;11.054;2023-03-04T03:40:04;98511.56;;;0.44;100.00
19447;BME280;9862;49.462;11.054;2023-03-04T03:42:31;98517.81;;;0.22;100.00
19447;BME280;9862;49.462;11.054;2023-03-04T03:44:58;98510.63;;;0.15;100.00
19447;BME280;9862;49.462;11.054;2023-03-04T03:47:25;98522.81;;;0.35;100.00
19447;BME280;9862;49.462;11.054;2023-03-04T03:49:51;98518.28;;;0.07;100.00
19447;BME280;9862;49.462;11.054;2023-03-04T03:52:20;98514.19;;;0.14;100.00
19447;BME280;9862;49.462;11.054;2023-03-04T03:54:46;98515.47;;;0.19;100.00
19447;BME280;9862;49.462;11.054;2023-03-04T03:57:13;98521.69;;;0.28;100.00
19447;BME280;9862;49.462;11.054;2023-03-04T03:59:39;98518.34;;;0.16;100.00
19447;BME280;9862;49.462;11.054;2023-03-04T04:02:06;98518.66;;;0.23;100.00
19447;BME280;9862;49.462;11.054;2023-03-04T04:04:33;98511.47;;;0.25;100.00
19447;BME280;9862;49.462;11.054;2023-03-04T04:06:59;98519.44;;;0.14;100.00
19447;BME280;9862;49.462;11.054;2023-03-04T04:09:27;98521.41;;;0.21;100.00
19447;BME280;9862;49.462;11.054;2023-03-04T04:11:54;98534.84;;;0.17;100.00
19447;BME280;9862;49.462;11.054;2023-03-04T04:14:20;98535.22;;;0.03;100.00
19447;BME280;9862;49.462;11.054;2023-03-04T04:16:47;98538.66;;;0.03;100.00
19447;BME280;9862;49.462;11.054;2023-03-04T04:19:17;98532.66;;;0.12;100.00
19447;BME280;9862;49.462;11.054;2023-03-04T04:21:44;98542.88;;;0.25;100.00
19447;BME280;9862;49.462;11.054;2023-03-04T04:24:11;98539.84;;;0.20;100.00
19447;BME280;9862;49.462;11.054;2023-03-04T04:26:40;98542.03;;;0.15;100.00
19447;BME280;9862;49.462;11.054;2023-03-04T04:29:07;98540.44;;;0.33;100.00
19447;BME280;9862;49.462;11.054;2023-03-04T04:31:34;98540.00;;;0.28;100.00
19447;BME280;9862;49.462;11.054;2023-03-04T04:34:01;98540.69;;;0.20;100.00
19447;BME280;9862;49.462;11.054;2023-03-04T04:36:27;98545.50;;;0.25;100.00
19447;BME280;9862;49.462;11.054;2023-03-04T04:38:54;98547.63;;;0.31;100.00
19447;BME280;9862;49.462;11.054;2023-03-04T04:41:23;98545.16;;;0.39;100.00
19447;BME280;9862;49.462;11.054;2023-03-04T04:43:51;98553.16;;;0.47;100.00
19447;BME280;9862;49.462;11.054;2023-03-04T04:46:18;98554.28;;;0.14;100.00
19447;BME280;9862;49.462;11.054;2023-03-04T04:48:45;98551.72;;;0.24;100.00
19447;BME280;9862;49.462;11.054;2023-03-04T04:51:12;98559.38;;;0.16;100.00
19447;BME280;9862;49.462;11.054;2023-03-04T04:53:39;98552.19;;;-0.13;100.00
19447;BME280;9862;49.462;11.054;2023-03-04T04:56:10;98558.00;;;0.12;100.00
19447;BME280;9862;49.462;11.054;2023-03-04T04:58:37;98552.31;;;0.37;100.00
19447;BME280;9862;49.462;11.054;2023-03-04T05:01:05;98550.13;;;0.42;100.00
19447;BME280;9862;49.462;11.054;2023-03-04T05:03:33;98565.75;;;0.23;100.00
19447;BME280;9862;49.462;11.054;2023-03-04T05:06:01;98566.84;;;0.20;100.00
19447;BME280;9862;49.462;11.054;2023-03-04T05:08:27;98561.66;;;0.30;100.00
19447;BME280;9862;49.462;11.054;2023-03-04T05:10:54;98560.00;;;0.29;100.00
19447;BME280;9862;49.462;11.054;2023-03-04T05:13:21;98556.94;;;0.24;100.00
19447;BME280;9862;49.462;11.054;2023-03-04T05:15:49;98564.00;;;0.33;100.00
19447;BME280;9862;49.462;11.054;2023-03-04T05:18:17;98550.13;;;0.42;100.00
19447;BME280;9862;49.462;11.054;2023-03-04T05:20:44;98555.22;;;0.44;100.00
19447;BME280;9862;49.462;11.054;2023-03-04T05:23:10;98563.41;;;0.20;100.00
19447;BME280;9862;49.462;11.054;2023-03-04T05:25:37;98572.53;;;0.05;100.00
19447;BME280;9862;49.462;11.054;2023-03-04T05:28:04;98561.22;;;0.25;100.00
19447;BME280;9862;49.462;11.054;2023-03-04T05:30:31;98573.00;;;0.40;100.00
19447;BME280;9862;49.462;11.054;2023-03-04T05:32:58;98559.81;;;0.51;100.00
19447;BME280;9862;49.462;11.054;2023-03-04T05:35:26;98559.06;;;0.70;100.00
19447;BME280;9862;49.462;11.054;2023-03-04T05:37:52;98552.06;;;0.90;100.00
19447;BME280;9862;49.462;11.054;2023-03-04T05:40:20;98556.78;;;1.06;100.00
19447;BME280;9862;49.462;11.054;2023-03-04T05:42:48;98561.91;;;1.07;100.00
19447;BME280;9862;49.462;11.054;2023-03-04T05:45:15;98562.38;;;0.72;100.00
19447;BME280;9862;49.462;11.054;2023-03-04T05:47:41;98562.47;;;0.61;100.00
19447;BME280;9862;49.462;11.054;2023-03-04T05:50:09;98562.66;;;0.69;100.00
19447;BME280;9862;49.462;11.054;2023-03-04T05:52:37;98561.44;;;0.43;100.00
19447;BME280;9862;49.462;11.054;2023-03-04T05:55:05;98563.66;;;0.47;100.00
19447;BME280;9862;49.462;11.054;2023-03-04T05:57:31;98558.59;;;0.25;100.00
19447;BME280;9862;49.462;11.054;2023-03-04T05:59:58;98565.09;;;0.31;100.00
19447;BME280;9862;49.462;11.054;2023-03-04T06:02:24;98564.75;;;0.45;100.00
19447;BME280;9862;49.462;11.054;2023-03-04T06:04:51;98562.41;;;0.42;100.00
19447;BME280;9862;49.462;11.054;2023-03-04T06:07:17;98571.72;;;0.35;100.00
19447;BME280;9862;49.462;11.054;2023-03-04T06:09:45;98562.25;;;0.43;100.00
19447;BME280;9862;49.462;11.054;2023-03-04T06:12:12;98563.81;;;0.55;100.00
19447;BME280;9862;49.462;11.054;2023-03-04T06:14:38;98569.66;;;0.69;100.00
19447;BME280;9862;49.462;11.054;2023-03-04T06:17:05;98563.78;;;0.86;100.00
19447;BME280;9862;49.462;11.054;2023-03-04T06:19:31;98575.00;;;1.07;100.00
19447;BME280;9862;49.462;11.054;2023-03-04T06:21:58;98575.84;;;1.08;100.00
19447;BME280;9862;49.462;11.054;2023-03-04T06:24:24;98571.38;;;0.89;100.00
19447;BME280;9862;49.462;11.054;2023-03-04T06:26:53;98575.66;;;0.90;100.00
19447;BME280;9862;49.462;11.054;2023-03-04T06:29:20;98584.31;;;0.81;100.00
19447;BME280;9862;49.462;11.054;2023-03-04T06:31:47;98578.69;;;0.95;100.00
19447;BME280;9862;49.462;11.054;2023-03-04T06:34:14;98583.25;;;0.93;100.00
19447;BME280;9862;49.462;11.054;2023-03-04T06:36:40;98584.75;;;0.96;100.00
19447;BME280;9862;49.462;11.054;2023-03-04T06:39:07;98593.09;;;1.10;100.00
19447;BME280;9862;49.462;11.054;2023-03-04T06:41:33;98587.84;;;1.10;100.00
19447;BME280;9862;49.462;11.054;2023-03-04T06:44:01;98588.00;;;1.19;100.00
19447;BME280;9862;49.462;11.054;2023-03-04T06:46:28;98577.66;;;1.27;100.00
19447;BME280;9862;49.462;11.054;2023-03-04T06:48:55;98587.44;;;1.25;100.00
19447;BME280;9862;49.462;11.054;2023-03-04T06:51:22;98594.09;;;1.48;100.00
19447;BME280;9862;49.462;11.054;2023-03-04T06:53:48;98585.56;;;1.65;100.00
19447;BME280;9862;49.462;11.054;2023-03-04T06:56:15;98587.88;;;1.68;100.00
19447;BME280;9862;49.462;11.054;2023-03-04T06:58:42;98594.38;;;1.64;100.00
19447;BME280;9862;49.462;11.054;2023-03-04T07:01:15;98592.16;;;1.89;100.00
19447;BME280;9862;49.462;11.054;2023-03-04T07:03:42;98591.44;;;2.06;100.00
19447;BME280;9862;49.462;11.054;2023-03-04T07:06:10;98591.75;;;1.93;100.00
19447;BME280;9862;49.462;11.054;2023-03-04T07:08:37;98595.06;;;1.95;100.00
19447;BME280;9862;49.462;11.054;2023-03-04T07:11:04;98597.81;;;1.94;100.00
19447;BME280;9862;49.462;11.054;2023-03-04T07:13:30;98596.72;;;1.87;100.00
19447;BME280;9862;49.462;11.054;2023-03-04T07:15:59;98605.13;;;1.71;100.00
19447;BME280;9862;49.462;11.054;2023-03-04T07:18:27;98604.72;;;1.76;100.00
19447;BME280;9862;49.462;11.054;2023-03-04T07:20:54;98609.69;;;1.98;100.00
19447;BME280;9862;49.462;11.054;2023-03-04T07:23:20;98600.50;;;2.21;100.00
19447;BME280;9862;49.462;11.054;2023-03-04T07:25:47;98606.59;;;2.22;100.00
19447;BME280;9862;49.462;11.054;2023-03-04T07:28:15;98605.50;;;2.24;100.00
19447;BME280;9862;49.462;11.054;2023-03-04T07:30:41;98599.97;;;2.18;100.00
19447;BME280;9862;49.462;11.054;2023-03-04T07:33:08;98608.84;;;1.97;100.00
19447;BME280;9862;49.462;11.054;2023-03-04T07:35:36;98608.84;;;2.07;100.00
19447;BME280;9862;49.462;11.054;2023-03-04T07:38:02;98608.00;;;2.16;100.00
19447;BME280;9862;49.462;11.054;2023-03-04T07:40:29;98612.56;;;2.14;100.00
19447;BME280;9862;49.462;11.054;2023-03-04T07:42:55;98611.47;;;2.07;100.00
19447;BME280;9862;49.462;11.054;2023-03-04T07:45:23;98611.59;;;2.15;100.00
19447;BME280;9862;49.462;11.054;2023-03-04T07:47:50;98611.72;;;2.23;100.00
19447;BME280;9862;49.462;11.054;2023-03-04T07:50:17;98613.22;;;2.36;100.00
19447;BME280;9862;49.462;11.054;2023-03-04T07:52:47;98617.34;;;2.38;100.00
19447;BME280;9862;49.462;11.054;2023-03-04T07:55:15;98611.84;;;2.22;100.00
19447;BME280;9862;49.462;11.054;2023-03-04T07:57:42;98610.09;;;2.13;100.00
19447;BME280;9862;49.462;11.054;2023-03-04T08:00:12;98609.66;;;2.17;100.00
19447;BME280;9862;49.462;11.054;2023-03-04T08:02:39;98612.41;;;2.25;100.00
19447;BME280;9862;49.462;11.054;2023-03-04T08:05:07;98611.25;;;2.38;100.00
19447;BME280;9862;49.462;11.054;2023-03-04T08:07:34;98614.38;;;2.51;100.00
19447;BME280;9862;49.462;11.054;2023-03-04T08:10:02;98612.59;;;2.61;100.00
19447;BME280;9862;49.462;11.054;2023-03-04T08:12:29;98607.69;;;2.76;100.00
19447;BME280;9862;49.462;11.054;2023-03-04T08:14:55;98609.38;;;2.67;100.00
19447;BME280;9862;49.462;11.054;2023-03-04T08:17:22;98615.09;;;2.53;100.00
19447;BME280;9862;49.462;11.054;2023-03-04T08:19:48;98606.00;;;2.38;100.00
19447;BME280;9862;49.462;11.054;2023-03-04T08:22:15;98605.72;;;2.41;100.00
19447;BME280;9862;49.462;11.054;2023-03-04T08:24:41;98610.97;;;2.41;100.00
19447;BME280;9862;49.462;11.054;2023-03-04T08:27:09;98606.00;;;2.38;100.00
19447;BME280;9862;49.462;11.054;2023-03-04T08:29:36;98601.88;;;2.35;100.00
19447;BME280;9862;49.462;11.054;2023-03-04T08:32:02;98592.44;;;2.52;100.00
19447;BME280;9862;49.462;11.054;2023-03-04T08:34:29;98606.13;;;2.46;100.00
19447;BME280;9862;49.462;11.054;2023-03-04T08:36:56;98601.00;;;2.54;100.00
19447;BME280;9862;49.462;11.054;2023-03-04T08:39:23;98599.91;;;2.47;100.00
19447;BME280;9862;49.462;11.054;2023-03-04T08:41:49;98602.81;;;2.44;100.00
19447;BME280;9862;49.462;11.054;2023-03-04T08:44:18;98610.41;;;2.47;100.00
19447;BME280;9862;49.462;11.054;2023-03-04T08:46:44;98596.81;;;2.61;100.00
19447;BME280;9862;49.462;11.054;2023-03-04T08:49:12;98594.28;;;2.69;100.00
19447;BME280;9862;49.462;11.054;2023-03-04T08:51:39;98599.44;;;2.61;100.00
19447;BME280;9862;49.462;11.054;2023-03-04T08:54:05;98604.00;;;2.59;100.00
19447;BME280;9862;49.462;11.054;2023-03-04T08:56:32;98603.00;;;2.33;100.00
19447;BME280;9862;49.462;11.054;2023-03-04T08:58:58;98608.69;;;2.18;100.00
19447;BME280;9862;49.462;11.054;2023-03-04T09:01:26;98608.53;;;2.20;100.00
19447;BME280;9862;49.462;11.054;2023-03-04T09:03:53;98614.91;;;2.17;100.00
19447;BME280;9862;49.462;11.054;2023-03-04T09:06:20;98619.63;;;2.14;100.00
19447;BME280;9862;49.462;11.054;2023-03-04T09:08:46;98614.22;;;2.25;100.00
19447;BME280;9862;49.462;11.054;2023-03-04T09:11:13;98610.13;;;2.40;100.00
19447;BME280;9862;49.462;11.054;2023-03-04T09:13:40;98608.25;;;2.70;100.00
19447;BME280;9862;49.462;11.054;2023-03-04T09:16:08;98604.69;;;2.88;100.00
19447;BME280;9862;49.462;11.054;2023-03-04T09:18:37;98608.81;;;3.01;100.00
19447;BME280;9862;49.462;11.054;2023-03-04T09:21:04;98626.03;;;2.85;100.00
19447;BME280;9862;49.462;11.054;2023-03-04T09:23:32;98616.19;;;2.87;100.00
19447;BME280;9862;49.462;11.054;2023-03-04T09:25:59;98613.66;;;2.96;100.00
19447;BME280;9862;49.462;11.054;2023-03-04T09:28:25;98610.94;;;2.87;100.00
19447;BME280;9862;49.462;11.054;2023-03-04T09:30:52;98608.03;;;2.91;100.00
19447;BME280;9862;49.462;11.054;2023-03-04T09:33:18;98607.75;;;2.94;100.00
19447;BME280;9862;49.462;11.054;2023-03-04T09:35:46;98617.69;;;3.00;100.00
19447;BME280;9862;49.462;11.054;2023-03-04T09:38:14;98619.66;;;2.88;100.00
19447;BME280;9862;49.462;11.054;2023-03-04T09:40:43;98613.28;;;2.63;100.00
19447;BME280;9862;49.462;11.054;2023-03-04T09:43:16;98612.56;;;2.71;100.00
19447;BME280;9862;49.462;11.054;2023-03-04T09:45:47;98618.16;;;2.85;100.00
19447;BME280;9862;49.462;11.054;2023-03-04T09:48:18;98615.47;;;2.95;100.00
19447;BME280;9862;49.462;11.054;2023-03-04T09:50:59;98613.66;;;3.23;100.00
19447;BME280;9862;49.462;11.054;2023-03-04T09:53:34;98612.47;;;3.35;100.00
19447;BME280;9862;49.462;11.054;2023-03-04T09:56:05;98609.47;;;3.30;100.00
19447;BME280;9862;49.462;11.054;2023-03-04T09:58:40;98610.50;;;3.37;100.00
19447;BME280;9862;49.462;11.054;2023-03-04T10:01:13;98604.34;;;3.47;100.00
19447;BME280;9862;49.462;11.054;2023-03-04T10:03:45;98614.25;;;3.17;100.00
19447;BME280;9862;49.462;11.054;2023-03-04T10:06:17;98612.44;;;3.00;100.00
19447;BME280;9862;49.462;11.054;2023-03-04T10:08:52;98608.91;;;3.09;100.00
19447;BME280;9862;49.462;11.054;2023-03-04T10:11:22;98612.44;;;3.00;100.00
19447;BME280;9862;49.462;11.054;2023-03-04T10:13:55;98614.94;;;2.92;100.00
19447;BME280;9862;49.462;11.054;2023-03-04T10:16:25;98613.28;;;2.91;100.00
19447;BME280;9862;49.462;11.054;2023-03-04T10:18:56;98597.69;;;3.07;100.00
19447;BME280;9862;49.462;11.054;2023-03-04T10:21:31;98596.13;;;3.14;100.00
19447;BME280;9862;49.462;11.054;2023-03-04T10:24:06;98596.88;;;3.06;100.00
19447;BME280;9862;49.462;11.054;2023-03-04T10:26:37;98603.44;;;3.20;100.00
19447;BME280;9862;49.462;11.054;2023-03-04T10:29:03;98593.50;;;3.14;100.00
19447;BME280;9862;49.462;11.054;2023-03-04T10:31:34;98591.03;;;3.12;100.00
19447;BME280;9862;49.462;11.054;2023-03-04T10:34:01;98595.63;;;3.10;100.00
19447;BME280;9862;49.462;11.054;2023-03-04T10:36:46;98595.25;;;3.23;100.00
19447;BME280;9862;49.462;11.054;2023-03-04T10:39:18;98594.59;;;3.39;100.00
19447;BME280;9862;49.462;11.054;2023-03-04T10:41:53;98584.06;;;3.57;100.00
19447;BME280;9862;49.462;11.054;2023-03-04T10:44:21;98585.59;;;3.41;100.00
19447;BME280;9862;49.462;11.054;2023-03-04T10:46:48;98582.63;;;3.27;100.00
19447;BME280;9862;49.462;11.054;2023-03-04T10:49:16;98587.22;;;3.42;100.00
19447;BME280;9862;49.462;11.054;2023-03-04T10:51:45;98588.22;;;3.41;100.00
19447;BME280;9862;49.462;11.054;2023-03-04T10:54:22;98585.50;;;3.33;100.00
19447;BME280;9862;49.462;11.054;2023-03-04T10:56:55;98583.19;;;3.30;100.00
19447;BME280;9862;49.462;11.054;2023-03-04T10:59:30;98583.75;;;3.24;100.00
19447;BME280;9862;49.462;11.054;2023-03-04T11:01:57;98583.59;;;3.26;100.00
19447;BME280;9862;49.462;11.054;2023-03-04T11:04:26;98587.22;;;3.42;100.00
19447;BME280;9862;49.462;11.054;2023-03-04T11:06:54;98587.47;;;3.49;100.00
19447;BME280;9862;49.462;11.054;2023-03-04T11:09:23;98585.28;;;3.44;100.00
19447;BME280;9862;49.462;11.054;2023-03-04T11:11:52;98583.09;;;3.40;100.00
19447;BME280;9862;49.462;11.054;2023-03-04T11:14:22;98584.13;;;3.47;100.00
19447;BME280;9862;49.462;11.054;2023-03-04T11:16:54;98580.97;;;3.26;100.00
19447;BME280;9862;49.462;11.054;2023-03-04T11:19:23;98589.59;;;3.18;100.00
19447;BME280;9862;49.462;11.054;2023-03-04T11:21:51;98581.91;;;3.52;100.00
19447;BME280;9862;49.462;11.054;2023-03-04T11:24:23;98580.38;;;3.32;100.00
19447;BME280;9862;49.462;11.054;2023-03-04T11:26:54;98576.88;;;3.41;100.00
19447;BME280;9862;49.462;11.054;2023-03-04T11:29:23;98573.69;;;3.20;100.00
19447;BME280;9862;49.462;11.054;2023-03-04T11:31:54;98579.78;;;3.20;100.00
19447;BME280;9862;49.462;11.054;2023-03-04T11:34:32;98574.47;;;3.30;100.00
19447;BME280;9862;49.462;11.054;2023-03-04T11:37:08;98570.84;;;3.49;100.00
19447;BME280;9862;49.462;11.054;2023-03-04T11:39:41;98574.25;;;3.59;100.00
19447;BME280;9862;49.462;11.054;2023-03-04T11:42:20;98570.91;;;3.74;100.00
19447;BME280;9862;49.462;11.054;2023-03-04T11:44:49;98561.19;;;3.75;100.00
19447;BME280;9862;49.462;11.054;2023-03-04T11:47:40;98562.88;;;3.40;100.00
19447;BME280;9862;49.462;11.054;2023-03-04T11:50:28;98557.59;;;3.23;100.00
19447;BME280;9862;49.462;11.054;2023-03-04T11:53:19;98555.44;;;3.36;100.00
19447;BME280;9862;49.462;11.054;2023-03-04T11:55:55;98553.63;;;3.54;100.00
19447;BME280;9862;49.462;11.054;2023-03-04T11:58:47;98544.38;;;3.32;100.00
19447;BME280;9862;49.462;11.054;2023-03-04T12:01:22;98553.03;;;3.25;100.00
19447;BME280;9862;49.462;11.054;2023-03-04T12:04:12;98538.59;;;3.11;100.00
19447;BME280;9862;49.462;11.054;2023-03-04T12:06:50;98535.47;;;2.98;100.00
19447;BME280;9862;49.462;11.054;2023-03-04T12:09:41;98530.69;;;2.93;100.00
19447;BME280;9862;49.462;11.054;2023-03-04T12:12:30;98536.81;;;2.84;100.00
19447;BME280;9862;49.462;11.054;2023-03-04T12:15:11;98529.94;;;3.01;100.00
19447;BME280;9862;49.462;11.054;2023-03-04T12:17:53;98528.06;;;3.11;100.00
19447;BME280;9862;49.462;11.054;2023-03-04T12:20:40;98526.41;;;3.28;100.00
19447;BME280;9862;49.462;11.054;2023-03-04T12:23:21;98517.69;;;3.45;100.00
19447;BME280;9862;49.462;11.054;2023-03-04T12:25:55;98503.78;;;3.53;100.00
19447;BME280;9862;49.462;11.054;2023-03-04T12:28:30;98506.25;;;3.72;100.00
19447;BME280;9862;49.462;11.054;2023-03-04T12:31:21;98507.47;;;3.60;100.00
19447;BME280;9862;49.462;11.054;2023-03-04T12:34:02;98510.84;;;3.70;100.00
19447;BME280;9862;49.462;11.054;2023-03-04T12:36:37;98513.00;;;3.74;100.00
19447;BME280;9862;49.462;11.054;2023-03-04T12:39:18;98501.28;;;3.69;100.00
19447;BME280;9862;49.462;11.054;2023-03-04T12:41:58;98498.66;;;3.69;100.00
19447;BME280;9862;49.462;11.054;2023-03-04T12:44:32;98505.09;;;3.49;100.00
19447;BME280;9862;49.462;11.054;2023-03-04T12:47:22;98508.59;;;3.57;100.00
19447;BME280;9862;49.462;11.054;2023-03-04T12:50:17;98501.34;;;3.77;100.00
19447;BME280;9862;49.462;11.054;2023-03-04T12:52:55;98493.00;;;3.64;100.00
19447;BME280;9862;49.462;11.054;2023-03-04T12:55:34;98497.28;;;3.65;100.00
19447;BME280;9862;49.462;11.054;2023-03-04T12:58:01;98497.38;;;4.25;100.00
19447;BME280;9862;49.462;11.054;2023-03-04T13:00:37;98493.25;;;4.65;100.00
19447;BME280;9862;49.462;11.054;2023-03-04T13:03:10;98494.63;;;4.85;100.00
19447;BME280;9862;49.462;11.054;2023-03-04T13:06:09;98476.53;;;5.06;100.00
19447;BME280;9862;49.462;11.054;2023-03-04T13:08:47;98489.22;;;4.44;100.00
19447;BME280;9862;49.462;11.054;2023-03-04T13:11:51;98482.53;;;4.24;100.00